createdAt,value
2023-03-03T00:01:41.850Z,10.92
2023-03-03T00:04:27.682Z,10.86
2023-03-03T00:07:15.534Z,10.83
2023-03-03T00:10:01.374Z,10.88
2023-03-03T00:12:49.031Z,10.89
2023-03-03T00:15:36.413Z,10.85
2023-03-03T00:18:30.980Z,10.76
2023-03-03T00:21:26.482Z,10.87
2023-03-03T00:24:21.983Z,10.76
2023-03-03T00:27:32.091Z,10.84
2023-03-03T00:30:26.367Z,10.88
2023-03-03T00:33:33.159Z,10.87
2023-03-03T00:36:31.717Z,10.76
2023-03-03T00:39:17.422Z,10.91
2023-03-03T00:42:10.698Z,10.87
2023-03-03T00:44:59.093Z,10.89
2023-03-03T00:47:45.313Z,10.85
2023-03-03T00:50:35.323Z,10.86
2023-03-03T00:53:23.605Z,10.77
2023-03-03T00:56:09.744Z,10.80
2023-03-03T00:58:55.699Z,10.76
2023-03-03T01:01:42.020Z,10.79
2023-03-03T01:04:27.841Z,10.71
2023-03-03T01:07:13.913Z,10.69
2023-03-03T01:10:00.028Z,10.72
2023-03-03T01:12:45.980Z,10.47
2023-03-03T01:15:31.991Z,10.60
2023-03-03T01:18:18.704Z,10.51
2023-03-03T01:21:05.625Z,10.43
2023-03-03T01:23:51.358Z,10.54
2023-03-03T01:26:37.676Z,10.45
2023-03-03T01:29:24.646Z,10.46
2023-03-03T01:32:10.684Z,10.46
2023-03-03T01:34:56.713Z,10.40
2023-03-03T01:37:42.680Z,10.39
2023-03-03T01:40:30.902Z,10.33
2023-03-03T01:43:16.949Z,10.38
2023-03-03T01:46:02.688Z,10.37
2023-03-03T01:48:48.676Z,10.35
2023-03-03T01:51:39.222Z,10.30
2023-03-03T01:54:29.080Z,9.90
2023-03-03T01:57:19.852Z,10.18
2023-03-03T02:00:06.728Z,10.15
2023-03-03T02:02:58.772Z,10.18
2023-03-03T02:05:45.006Z,10.18
2023-03-03T02:08:37.344Z,10.15
2023-03-03T02:11:23.625Z,10.05
2023-03-03T02:14:11.142Z,10.12
2023-03-03T02:17:02.339Z,10.11
2023-03-03T02:20:08.069Z,10.05
2023-03-03T02:22:58.862Z,10.00
2023-03-03T02:25:58.804Z,10.14
2023-03-03T02:28:46.559Z,10.17
2023-03-03T02:31:33.380Z,10.09
2023-03-03T02:34:19.233Z,10.17
2023-03-03T02:37:05.473Z,10.16
2023-03-03T02:39:51.661Z,10.14
2023-03-03T02:42:37.931Z,10.19
2023-03-03T02:45:24.038Z,10.22
2023-03-03T02:48:10.494Z,10.18
2023-03-03T02:50:57.775Z,10.10
2023-03-03T02:53:43.888Z,10.21
2023-03-03T02:56:29.850Z,10.19
2023-03-03T02:59:17.201Z,10.11
2023-03-03T03:02:08.839Z,10.24
2023-03-03T03:04:55.033Z,10.20
2023-03-03T03:07:43.979Z,10.17
2023-03-03T03:10:29.837Z,10.14
2023-03-03T03:13:15.790Z,10.11
2023-03-03T03:16:03.149Z,10.13
2023-03-03T03:18:50.760Z,10.08
2023-03-03T03:21:37.428Z,10.13
2023-03-03T03:24:25.270Z,10.14
2023-03-03T03:27:17.215Z,10.16
2023-03-03T03:30:03.630Z,10.11
2023-03-03T03:32:50.393Z,10.14
2023-03-03T03:35:37.120Z,10.22
2023-03-03T03:38:24.768Z,10.21
2023-03-03T03:41:11.921Z,10.14
2023-03-03T03:43:57.860Z,10.12
2023-03-03T03:46:43.924Z,10.19
2023-03-03T03:49:30.479Z,10.18
2023-03-03T03:52:18.111Z,10.30
2023-03-03T03:55:05.271Z,10.34
2023-03-03T03:57:52.194Z,10.34
2023-03-03T04:00:42.343Z,10.33
2023-03-03T04:03:28.907Z,10.34
2023-03-03T04:06:15.120Z,10.36
2023-03-03T04:09:01.780Z,10.38
2023-03-03T04:11:49.086Z,10.39
2023-03-03T04:14:36.050Z,10.38
2023-03-03T04:17:25.044Z,10.44
2023-03-03T04:20:14.093Z,10.42
2023-03-03T04:23:00.276Z,10.30
2023-03-03T04:25:47.165Z,10.41
2023-03-03T04:28:34.051Z,10.43
2023-03-03T04:31:20.808Z,10.44
2023-03-03T04:34:07.965Z,10.40
2023-03-03T04:36:54.475Z,10.34
2023-03-03T04:39:40.421Z,10.40
2023-03-03T04:42:28.277Z,10.40
2023-03-03T04:45:14.853Z,10.41
2023-03-03T04:48:01.037Z,10.26
2023-03-03T04:50:47.505Z,10.25
2023-03-03T04:53:33.371Z,10.20
2023-03-03T04:56:19.057Z,10.14
2023-03-03T04:59:05.219Z,10.15
2023-03-03T05:01:51.676Z,10.05
2023-03-03T05:04:37.399Z,10.12
2023-03-03T05:07:24.099Z,10.13
2023-03-03T05:10:11.075Z,10.17
2023-03-03T05:12:57.353Z,10.10
2023-03-03T05:15:43.475Z,10.08
2023-03-03T05:18:29.166Z,10.05
2023-03-03T05:21:15.077Z,10.04
2023-03-03T05:24:00.996Z,9.89
2023-03-03T05:26:46.790Z,9.97
2023-03-03T05:29:33.954Z,9.98
2023-03-03T05:32:19.792Z,10.05
2023-03-03T05:35:06.087Z,9.95
2023-03-03T05:37:52.816Z,9.91
2023-03-03T05:40:39.005Z,9.88
2023-03-03T05:43:25.288Z,9.99
2023-03-03T05:46:12.297Z,9.94
2023-03-03T05:48:58.545Z,9.97
2023-03-03T05:51:44.453Z,9.95
2023-03-03T05:54:30.276Z,9.98
2023-03-03T05:57:16.348Z,9.73
2023-03-03T06:00:05.813Z,9.78
2023-03-03T06:02:58.126Z,9.83
2023-03-03T06:05:44.135Z,9.51
2023-03-03T06:08:30.689Z,9.71
2023-03-03T06:11:18.692Z,9.69
2023-03-03T06:14:05.317Z,9.81
2023-03-03T06:16:51.591Z,9.70
2023-03-03T06:19:37.895Z,9.88
2023-03-03T06:22:28.833Z,9.91
2023-03-03T06:25:15.098Z,9.94
2023-03-03T06:28:00.925Z,9.88
2023-03-03T06:30:46.808Z,9.97
2023-03-03T06:33:32.617Z,10.02
2023-03-03T06:36:18.932Z,9.93
2023-03-03T06:39:04.866Z,10.00
2023-03-03T06:41:50.587Z,10.06
2023-03-03T06:44:36.656Z,9.94
2023-03-03T06:47:22.835Z,9.89
2023-03-03T06:50:11.136Z,9.79
2023-03-03T06:53:17.696Z,9.75
2023-03-03T06:56:09.197Z,9.88
2023-03-03T06:58:57.263Z,9.96
2023-03-03T07:01:44.332Z,10.05
2023-03-03T07:04:34.116Z,9.97
2023-03-03T07:07:25.202Z,10.01
2023-03-03T07:10:31.553Z,10.08
2023-03-03T07:13:26.167Z,10.15
2023-03-03T07:16:13.655Z,10.26
2023-03-03T07:19:05.496Z,10.24
2023-03-03T07:21:52.894Z,10.37
2023-03-03T07:24:39.068Z,10.44
2023-03-03T07:27:27.952Z,10.52
2023-03-03T07:30:28.419Z,10.46
2023-03-03T07:33:38.326Z,10.54
2023-03-03T07:36:28.942Z,10.63
2023-03-03T07:39:39.133Z,10.62
2023-03-03T07:42:38.440Z,10.68
2023-03-03T07:45:47.604Z,10.66
2023-03-03T07:48:37.920Z,10.71
2023-03-03T07:51:29.152Z,10.78
2023-03-03T07:54:30.077Z,10.73
2023-03-03T07:57:38.041Z,10.81
2023-03-03T08:00:24.684Z,10.93
2023-03-03T08:03:16.975Z,10.96
2023-03-03T08:06:25.418Z,10.96
2023-03-03T08:09:11.339Z,11.10
2023-03-03T08:12:02.439Z,11.12
2023-03-03T08:14:51.302Z,11.20
2023-03-03T08:17:39.401Z,11.22
2023-03-03T08:20:46.560Z,11.30
2023-03-03T08:23:32.782Z,11.43
2023-03-03T08:26:19.886Z,11.51
2023-03-03T08:29:06.005Z,11.56
2023-03-03T08:31:51.885Z,11.59
2023-03-03T08:34:37.909Z,11.67
2023-03-03T08:37:23.838Z,11.73
2023-03-03T08:40:10.440Z,11.71
2023-03-03T08:42:58.189Z,11.75
2023-03-03T08:45:51.726Z,11.71
2023-03-03T08:48:38.266Z,11.86
2023-03-03T08:51:25.476Z,11.92
2023-03-03T08:54:11.372Z,11.98
2023-03-03T08:56:57.196Z,12.08
2023-03-03T08:59:43.175Z,12.08
2023-03-03T09:02:29.029Z,12.16
2023-03-03T09:05:15.280Z,12.22
2023-03-03T09:08:01.580Z,12.13
2023-03-03T09:10:47.439Z,12.23
2023-03-03T09:13:33.812Z,12.30
2023-03-03T09:16:21.862Z,12.27
2023-03-03T09:19:22.127Z,12.31
2023-03-03T09:22:34.442Z,12.27
2023-03-03T09:25:39.766Z,12.20
2023-03-03T09:28:32.009Z,12.36
2023-03-03T09:31:39.834Z,12.36
2023-03-03T09:34:44.006Z,12.49
2023-03-03T09:37:36.231Z,12.53
2023-03-03T09:40:57.196Z,12.48
2023-03-03T09:43:54.784Z,12.58
2023-03-03T09:46:59.338Z,12.66
2023-03-03T09:50:13.052Z,12.72
2023-03-03T09:53:05.117Z,12.82
2023-03-03T09:55:51.335Z,12.85
2023-03-03T09:58:58.970Z,12.88
2023-03-03T10:01:58.559Z,12.84
2023-03-03T10:05:14.776Z,12.92
2023-03-03T10:08:03.803Z,13.05
2023-03-03T10:11:01.897Z,13.10
2023-03-03T10:13:56.883Z,13.22
2023-03-03T10:17:04.500Z,13.31
2023-03-03T10:20:09.661Z,13.23
2023-03-03T10:22:59.593Z,13.30
2023-03-03T10:26:05.772Z,13.18
2023-03-03T10:29:00.853Z,13.17
2023-03-03T10:32:22.238Z,13.20
2023-03-03T10:35:35.088Z,13.22
2023-03-03T10:38:36.365Z,13.26
2023-03-03T10:41:44.350Z,13.32
2023-03-03T10:44:45.437Z,13.29
2023-03-03T10:47:35.924Z,13.38
2023-03-03T10:50:46.760Z,13.36
2023-03-03T10:53:38.953Z,13.34
2023-03-03T10:56:53.533Z,13.31
2023-03-03T11:00:18.295Z,13.40
2023-03-03T11:03:35.559Z,13.36
2023-03-03T11:06:36.526Z,13.39
2023-03-03T11:09:46.460Z,13.27
2023-03-03T11:12:47.967Z,13.35
2023-03-03T11:15:58.880Z,13.52
2023-03-03T11:19:12.988Z,13.60
2023-03-03T11:22:05.477Z,13.67
2023-03-03T11:25:08.919Z,13.75
2023-03-03T11:28:09.581Z,13.85
2023-03-03T11:31:07.375Z,14.02
2023-03-03T11:33:54.192Z,14.15
2023-03-03T11:36:46.135Z,14.25
2023-03-03T11:39:33.409Z,14.28
2023-03-03T11:42:26.739Z,14.39
2023-03-03T11:45:19.150Z,14.49
2023-03-03T11:48:11.255Z,14.40
2023-03-03T11:51:07.770Z,14.60
2023-03-03T11:54:05.490Z,14.57
2023-03-03T11:56:55.302Z,14.81
2023-03-03T12:00:09.473Z,14.81
2023-03-03T12:03:01.642Z,14.87
2023-03-03T12:06:24.303Z,14.92
2023-03-03T12:09:25.636Z,14.96
2023-03-03T12:12:24.614Z,15.04
2023-03-03T12:15:51.842Z,15.13
2023-03-03T12:18:47.064Z,15.28
2023-03-03T12:21:57.781Z,15.24
2023-03-03T12:25:02.580Z,15.50
2023-03-03T12:28:09.334Z,15.49
2023-03-03T12:31:01.999Z,15.65
2023-03-03T12:34:13.105Z,15.15
2023-03-03T12:37:33.309Z,15.53
2023-03-03T12:40:25.364Z,15.68
2023-03-03T12:43:17.663Z,15.71
2023-03-03T12:46:15.759Z,15.85
2023-03-03T12:49:02.160Z,15.90
2023-03-03T12:52:14.637Z,15.95
2023-03-03T12:55:11.817Z,16.17
2023-03-03T12:58:10.142Z,16.31
2023-03-03T13:01:16.553Z,16.36
2023-03-03T13:04:02.356Z,16.50
2023-03-03T13:07:11.405Z,16.54
2023-03-03T13:10:03.558Z,16.66
2023-03-03T13:13:26.827Z,16.60
2023-03-03T13:16:40.405Z,16.60
2023-03-03T13:19:39.375Z,16.52
2023-03-03T13:22:43.535Z,16.52
2023-03-03T13:25:36.303Z,16.37
2023-03-03T13:28:30.943Z,16.35
2023-03-03T13:31:26.549Z,16.25
2023-03-03T13:34:30.644Z,16.22
2023-03-03T13:37:21.311Z,16.30
2023-03-03T13:40:13.667Z,16.36
2023-03-03T13:43:03.267Z,16.44
2023-03-03T13:46:45.232Z,16.43
2023-03-03T13:49:31.440Z,16.49
2023-03-03T13:52:51.102Z,16.35
2023-03-03T13:55:45.292Z,16.28
2023-03-03T13:58:39.793Z,16.13
2023-03-03T14:01:35.863Z,16.10
2023-03-03T14:04:54.077Z,15.97
2023-03-03T14:07:50.288Z,15.91
2023-03-03T14:10:44.976Z,15.82
2023-03-03T14:13:37.665Z,15.70
2023-03-03T14:16:52.639Z,15.58
2023-03-03T14:19:48.119Z,15.48
2023-03-03T14:23:21.708Z,15.32
2023-03-03T14:26:09.649Z,15.29
2023-03-03T14:29:17.126Z,15.16
2023-03-03T14:32:21.523Z,14.95
2023-03-03T14:35:18.321Z,15.02
2023-03-03T14:38:17.731Z,14.87
2023-03-03T14:41:21.212Z,14.66
2023-03-03T14:44:22.578Z,14.76
2023-03-03T14:47:17.246Z,14.63
2023-03-03T14:50:36.400Z,14.45
2023-03-03T14:53:34.716Z,14.20
2023-03-03T14:56:25.405Z,14.35
2023-03-03T14:59:23.874Z,14.24
2023-03-03T15:02:16.022Z,14.26
2023-03-03T15:05:30.526Z,14.13
2023-03-03T15:08:25.121Z,14.14
2023-03-03T15:11:21.558Z,13.87
2023-03-03T15:14:14.537Z,14.04
2023-03-03T15:17:21.101Z,13.82
2023-03-03T15:20:20.185Z,12.76
2023-03-03T15:23:25.028Z,13.40
2023-03-03T15:26:33.012Z,13.45
2023-03-03T15:29:42.454Z,13.40
2023-03-03T15:32:31.065Z,13.32
2023-03-03T15:35:51.445Z,13.20
2023-03-03T15:39:01.210Z,13.07
2023-03-03T15:42:05.922Z,13.07
2023-03-03T15:45:15.410Z,13.00
2023-03-03T15:48:07.471Z,12.97
2023-03-03T15:51:32.476Z,12.91
2023-03-03T15:54:31.055Z,12.93
2023-03-03T15:57:32.615Z,12.80
2023-03-03T16:00:22.296Z,12.76
2023-03-03T16:03:18.004Z,12.77
2023-03-03T16:06:12.308Z,12.75
2023-03-03T16:09:07.177Z,12.73
2023-03-03T16:12:34.512Z,12.66
2023-03-03T16:15:26.364Z,12.68
2023-03-03T16:18:27.860Z,12.59
2023-03-03T16:21:52.286Z,12.51
2023-03-03T16:25:04.444Z,12.38
2023-03-03T16:28:07.398Z,12.45
2023-03-03T16:31:19.525Z,12.23
2023-03-03T16:34:13.947Z,12.15
2023-03-03T16:37:29.943Z,12.19
2023-03-03T16:40:26.532Z,12.09
2023-03-03T16:43:42.866Z,11.91
2023-03-03T16:46:37.293Z,12.05
2023-03-03T16:49:46.198Z,11.99
2023-03-03T16:52:48.351Z,11.99
2023-03-03T16:56:08.763Z,11.87
2023-03-03T16:59:06.995Z,11.95
2023-03-03T17:02:04.221Z,11.85
2023-03-03T17:05:06.317Z,11.90
2023-03-03T17:07:55.253Z,11.95
2023-03-03T17:10:56.706Z,11.93
2023-03-03T17:14:04.429Z,11.87
2023-03-03T17:17:12.508Z,11.87
2023-03-03T17:20:16.637Z,11.83
2023-03-03T17:23:40.639Z,11.85
2023-03-03T17:26:39.164Z,11.89
2023-03-03T17:29:56.637Z,11.83
2023-03-03T17:33:07.754Z,11.75
2023-03-03T17:36:32.676Z,11.80
2023-03-03T17:39:57.736Z,11.78
2023-03-03T17:42:45.596Z,11.73
2023-03-03T17:45:35.533Z,11.73
2023-03-03T17:48:32.217Z,11.72
2023-03-03T17:51:49.541Z,11.63
2023-03-03T17:54:59.139Z,11.70
2023-03-03T17:58:06.958Z,11.75
2023-03-03T18:01:13.704Z,11.66
2023-03-03T18:04:15.987Z,11.61
2023-03-03T18:07:39.573Z,11.60
2023-03-03T18:10:43.360Z,11.35
2023-03-03T18:13:38.774Z,11.43
2023-03-03T18:16:33.755Z,11.42
2023-03-03T18:19:57.465Z,11.31
2023-03-03T18:22:52.248Z,11.27
2023-03-03T18:25:58.782Z,11.30
2023-03-03T18:28:50.615Z,11.33
2023-03-03T18:31:59.731Z,11.31
2023-03-03T18:34:45.786Z,11.26
2023-03-03T18:37:31.930Z,11.33
2023-03-03T18:40:30.174Z,11.29
2023-03-03T18:43:41.159Z,11.23
2023-03-03T18:46:27.185Z,11.22
2023-03-03T18:49:13.164Z,11.24
2023-03-03T18:52:21.419Z,11.21
2023-03-03T18:55:10.508Z,11.28
2023-03-03T18:58:19.403Z,11.21
2023-03-03T19:01:10.645Z,11.28
2023-03-03T19:04:10.021Z,11.24
2023-03-03T19:07:09.778Z,11.16
2023-03-03T19:09:58.860Z,11.23
2023-03-03T19:12:58.183Z,11.20
2023-03-03T19:15:46.894Z,11.20
2023-03-03T19:18:41.765Z,11.08
2023-03-03T19:21:33.346Z,11.17
2023-03-03T19:24:34.191Z,11.10
2023-03-03T19:28:18.893Z,11.01
2023-03-03T19:31:17.392Z,11.01
2023-03-03T19:34:34.260Z,10.97
2023-03-03T19:38:11.927Z,10.89
2023-03-03T19:41:37.671Z,10.77
2023-03-03T19:44:41.990Z,10.76
2023-03-03T19:47:41.546Z,10.80
2023-03-03T19:50:35.046Z,10.84
2023-03-03T19:53:31.686Z,10.87
2023-03-03T19:56:26.708Z,10.85
2023-03-03T19:59:16.961Z,10.82
2023-03-03T20:02:24.794Z,10.81
2023-03-03T20:05:17.054Z,10.80
2023-03-03T20:08:27.886Z,10.74
2023-03-03T20:11:28.465Z,10.70
2023-03-03T20:14:28.661Z,10.76
2023-03-03T20:17:30.867Z,10.82
2023-03-03T20:20:35.847Z,10.72
2023-03-03T20:23:36.744Z,10.70
2023-03-03T20:26:31.775Z,10.56
2023-03-03T20:29:36.649Z,10.61
2023-03-03T20:32:47.694Z,10.66
2023-03-03T20:35:54.433Z,10.60
2023-03-03T20:38:44.636Z,10.45
2023-03-03T20:41:34.783Z,10.45
2023-03-03T20:44:51.775Z,10.48
2023-03-03T20:47:45.149Z,10.49
2023-03-03T20:50:37.408Z,10.35
2023-03-03T20:53:49.493Z,10.43
2023-03-03T20:56:35.940Z,10.47
2023-03-03T20:59:33.148Z,10.45
2023-03-03T21:02:39.475Z,10.42
2023-03-03T21:05:25.778Z,10.42
2023-03-03T21:08:11.892Z,10.35
2023-03-03T21:10:57.809Z,10.38
2023-03-03T21:13:52.247Z,10.39
2023-03-03T21:16:41.168Z,10.37
2023-03-03T21:19:36.596Z,10.38
2023-03-03T21:22:22.315Z,10.27
2023-03-03T21:25:12.718Z,10.39
2023-03-03T21:28:20.479Z,10.35
2023-03-03T21:31:13.887Z,10.37
2023-03-03T21:34:00.081Z,10.38
2023-03-03T21:36:49.935Z,10.37
2023-03-03T21:39:38.452Z,10.40
2023-03-03T21:42:41.794Z,10.34
2023-03-03T21:45:30.147Z,10.37
2023-03-03T21:48:16.489Z,10.38
2023-03-03T21:51:02.471Z,10.39
2023-03-03T21:53:48.648Z,10.39
2023-03-03T21:56:35.689Z,10.40
2023-03-03T21:59:22.020Z,10.43
2023-03-03T22:02:08.455Z,10.33
2023-03-03T22:04:54.320Z,10.42
2023-03-03T22:07:40.116Z,10.35
2023-03-03T22:10:26.082Z,10.41
2023-03-03T22:13:12.201Z,10.40
2023-03-03T22:15:58.592Z,10.28
2023-03-03T22:18:44.429Z,10.40
2023-03-03T22:21:39.716Z,10.41
2023-03-03T22:24:26.292Z,10.39
2023-03-03T22:27:12.415Z,10.30
2023-03-03T22:29:58.623Z,10.38
2023-03-03T22:32:44.433Z,10.32
2023-03-03T22:35:30.621Z,10.25
2023-03-03T22:38:17.106Z,10.44
2023-03-03T22:41:03.448Z,10.35
2023-03-03T22:43:49.384Z,10.39
2023-03-03T22:46:35.352Z,10.27
2023-03-03T22:49:21.145Z,10.40
2023-03-03T22:52:07.071Z,10.31
2023-03-03T22:54:52.922Z,10.35
2023-03-03T22:57:38.747Z,10.26
2023-03-03T23:00:24.633Z,10.31
2023-03-03T23:03:11.072Z,10.27
2023-03-03T23:05:56.931Z,10.32
2023-03-03T23:08:42.771Z,10.25
2023-03-03T23:11:28.672Z,10.36
2023-03-03T23:14:14.808Z,10.29
2023-03-03T23:17:00.865Z,10.36
2023-03-03T23:19:47.517Z,10.32
2023-03-03T23:22:33.636Z,10.39
2023-03-03T23:25:20.048Z,10.41
2023-03-03T23:28:06.479Z,10.40
2023-03-03T23:30:52.579Z,10.46
2023-03-03T23:33:38.457Z,10.38
2023-03-03T23:36:24.355Z,10.37
2023-03-03T23:39:10.211Z,10.44
2023-03-03T23:41:56.119Z,10.43
2023-03-03T23:44:42.035Z,10.48
2023-03-03T23:47:27.945Z,10.48
2023-03-03T23:50:14.432Z,10.49
2023-03-03T23:53:00.207Z,10.52
2023-03-03T23:55:46.026Z,10.48
2023-03-03T23:58:32.051Z,10.53
